createdAt,value
2022-09-24T00:01:30.171Z,100.00
2022-09-24T00:04:03.017Z,100.00
2022-09-24T00:06:31.309Z,100.00
2022-09-24T00:08:58.171Z,100.00
2022-09-24T00:11:27.613Z,100.00
2022-09-24T00:13:56.263Z,100.00
2022-09-24T00:16:26.218Z,100.00
2022-09-24T00:18:54.223Z,100.00
2022-09-24T00:21:24.181Z,100.00
2022-09-24T00:23:53.690Z,100.00
2022-09-24T00:26:40.054Z,100.00
2022-09-24T00:29:08.153Z,100.00
2022-09-24T00:31:35.526Z,100.00
2022-09-24T00:34:02.943Z,100.00
2022-09-24T00:36:29.618Z,100.00
2022-09-24T00:38:58.598Z,100.00
2022-09-24T00:41:31.361Z,100.00
2022-09-24T00:43:59.141Z,100.00
2022-09-24T00:46:37.247Z,100.00
2022-09-24T00:49:20.357Z,100.00
2022-09-24T00:51:50.391Z,100.00
2022-09-24T00:54:24.289Z,100.00
2022-09-24T00:56:52.588Z,100.00
2022-09-24T00:59:24.014Z,100.00
2022-09-24T01:01:54.055Z,100.00
2022-09-24T01:04:21.883Z,100.00
2022-09-24T01:06:50.009Z,100.00
2022-09-24T01:09:19.166Z,100.00
2022-09-24T01:12:07.530Z,100.00
2022-09-24T01:14:43.777Z,100.00
2022-09-24T01:17:30.779Z,100.00
2022-09-24T01:20:16.408Z,100.00
2022-09-24T01:22:55.354Z,100.00
2022-09-24T01:25:31.243Z,100.00
2022-09-24T01:28:19.893Z,100.00
2022-09-24T01:30:51.233Z,100.00
2022-09-24T01:33:22.827Z,100.00
2022-09-24T01:35:55.377Z,100.00
2022-09-24T01:38:26.281Z,100.00
2022-09-24T01:40:55.706Z,100.00
2022-09-24T01:43:25.719Z,100.00
2022-09-24T01:45:53.494Z,100.00
2022-09-24T01:48:22.053Z,100.00
2022-09-24T01:51:02.732Z,100.00
2022-09-24T01:53:40.530Z,100.00
2022-09-24T01:56:16.142Z,100.00
2022-09-24T01:58:51.907Z,100.00
2022-09-24T02:01:24.532Z,100.00
2022-09-24T02:04:06.894Z,100.00
2022-09-24T02:06:38.899Z,100.00
2022-09-24T02:09:06.229Z,100.00
2022-09-24T02:11:37.320Z,100.00
2022-09-24T02:14:09.634Z,100.00
2022-09-24T02:16:41.951Z,100.00
2022-09-24T02:19:25.263Z,100.00
2022-09-24T02:21:52.773Z,100.00
2022-09-24T02:24:50.574Z,100.00
2022-09-24T02:27:18.706Z,100.00
2022-09-24T02:29:46.307Z,100.00
2022-09-24T02:32:18.438Z,100.00
2022-09-24T02:34:54.005Z,100.00
2022-09-24T02:37:23.975Z,100.00
2022-09-24T02:39:51.299Z,100.00
2022-09-24T02:42:19.781Z,100.00
2022-09-24T02:44:47.647Z,100.00
2022-09-24T02:47:14.674Z,100.00
2022-09-24T02:49:41.303Z,100.00
2022-09-24T02:52:08.029Z,100.00
2022-09-24T02:54:34.920Z,100.00
2022-09-24T02:57:01.544Z,100.00
2022-09-24T02:59:28.272Z,100.00
2022-09-24T03:01:55.276Z,100.00
2022-09-24T03:04:21.979Z,100.00
2022-09-24T03:06:48.866Z,100.00
2022-09-24T03:09:15.668Z,100.00
2022-09-24T03:11:42.383Z,100.00
2022-09-24T03:14:09.216Z,100.00
2022-09-24T03:16:35.969Z,100.00
2022-09-24T03:19:03.022Z,100.00
2022-09-24T03:21:29.868Z,100.00
2022-09-24T03:23:56.538Z,100.00
2022-09-24T03:26:23.454Z,100.00
2022-09-24T03:28:50.137Z,100.00
2022-09-24T03:31:17.067Z,100.00
2022-09-24T03:33:46.826Z,100.00
2022-09-24T03:36:25.935Z,100.00
2022-09-24T03:38:56.688Z,100.00
2022-09-24T03:41:26.079Z,100.00
2022-09-24T03:43:52.902Z,100.00
2022-09-24T03:46:19.655Z,100.00
2022-09-24T03:48:47.515Z,100.00
2022-09-24T03:51:18.858Z,100.00
2022-09-24T03:53:46.209Z,100.00
2022-09-24T03:56:13.537Z,100.00
2022-09-24T03:58:42.030Z,100.00
2022-09-24T04:01:10.776Z,100.00
2022-09-24T04:03:37.814Z,100.00
2022-09-24T04:06:05.290Z,100.00
2022-09-24T04:08:32.493Z,100.00
2022-09-24T04:10:59.500Z,100.00
2022-09-24T04:13:26.221Z,100.00
2022-09-24T04:15:54.022Z,100.00
2022-09-24T04:18:21.724Z,100.00
2022-09-24T04:20:48.662Z,100.00
2022-09-24T04:23:15.633Z,100.00
2022-09-24T04:25:42.307Z,100.00
2022-09-24T04:28:10.099Z,100.00
2022-09-24T04:30:38.375Z,100.00
2022-09-24T04:33:06.164Z,100.00
2022-09-24T04:35:36.248Z,100.00
2022-09-24T04:38:04.957Z,100.00
2022-09-24T04:40:32.631Z,100.00
2022-09-24T04:42:59.636Z,100.00
2022-09-24T04:45:26.952Z,100.00
2022-09-24T04:47:57.363Z,100.00
2022-09-24T04:50:29.280Z,100.00
2022-09-24T04:52:56.283Z,100.00
2022-09-24T04:55:24.205Z,100.00
2022-09-24T04:57:51.284Z,100.00
2022-09-24T05:00:21.008Z,100.00
2022-09-24T05:02:55.650Z,100.00
2022-09-24T05:05:22.620Z,100.00
2022-09-24T05:07:49.616Z,100.00
2022-09-24T05:10:16.336Z,100.00
2022-09-24T05:12:42.931Z,100.00
2022-09-24T05:15:10.012Z,100.00
2022-09-24T05:17:40.304Z,100.00
2022-09-24T05:20:08.785Z,100.00
2022-09-24T05:22:36.698Z,100.00
2022-09-24T05:25:03.900Z,100.00
2022-09-24T05:27:30.561Z,100.00
2022-09-24T05:29:57.263Z,100.00
2022-09-24T05:32:24.024Z,100.00
2022-09-24T05:34:51.099Z,100.00
2022-09-24T05:37:18.347Z,100.00
2022-09-24T05:39:44.998Z,100.00
2022-09-24T05:42:14.439Z,100.00
2022-09-24T05:44:45.614Z,100.00
2022-09-24T05:47:15.892Z,100.00
2022-09-24T05:49:43.209Z,100.00
2022-09-24T05:52:10.096Z,100.00
2022-09-24T05:54:36.726Z,100.00
2022-09-24T05:57:03.586Z,100.00
2022-09-24T05:59:30.216Z,100.00
2022-09-24T06:01:57.027Z,100.00
2022-09-24T06:04:23.675Z,100.00
2022-09-24T06:06:50.423Z,100.00
2022-09-24T06:09:17.117Z,100.00
2022-09-24T06:11:44.468Z,100.00
2022-09-24T06:14:11.390Z,100.00
2022-09-24T06:16:38.213Z,100.00
2022-09-24T06:19:05.135Z,100.00
2022-09-24T06:21:31.888Z,100.00
2022-09-24T06:23:58.575Z,100.00
2022-09-24T06:26:26.484Z,100.00
2022-09-24T06:28:53.298Z,100.00
2022-09-24T06:31:20.501Z,100.00
2022-09-24T06:33:47.552Z,100.00
2022-09-24T06:36:14.898Z,100.00
2022-09-24T06:38:42.150Z,100.00
2022-09-24T06:41:10.523Z,100.00
2022-09-24T06:43:37.682Z,100.00
2022-09-24T06:46:05.285Z,100.00
2022-09-24T06:48:32.470Z,100.00
2022-09-24T06:50:59.797Z,100.00
2022-09-24T06:53:27.474Z,100.00
2022-09-24T06:55:58.913Z,100.00
2022-09-24T06:58:26.637Z,100.00
2022-09-24T07:00:59.098Z,100.00
2022-09-24T07:03:27.899Z,100.00
2022-09-24T07:05:55.225Z,100.00
2022-09-24T07:08:22.727Z,100.00
2022-09-24T07:10:49.935Z,100.00
2022-09-24T07:13:16.917Z,100.00
2022-09-24T07:15:44.771Z,100.00
2022-09-24T07:18:12.816Z,100.00
2022-09-24T07:20:40.071Z,100.00
2022-09-24T07:23:12.854Z,100.00
2022-09-24T07:25:40.265Z,100.00
2022-09-24T07:28:09.831Z,100.00
2022-09-24T07:30:39.792Z,100.00
2022-09-24T07:33:09.884Z,100.00
2022-09-24T07:35:40.936Z,100.00
2022-09-24T07:38:12.529Z,100.00
2022-09-24T07:40:39.905Z,100.00
2022-09-24T07:43:12.597Z,100.00
2022-09-24T07:45:39.618Z,100.00
2022-09-24T07:48:07.027Z,100.00
2022-09-24T07:50:39.455Z,100.00
2022-09-24T07:53:07.057Z,100.00
2022-09-24T07:55:39.592Z,100.00
2022-09-24T07:58:12.165Z,100.00
2022-09-24T08:00:39.319Z,100.00
2022-09-24T08:03:06.515Z,100.00
2022-09-24T08:05:33.601Z,100.00
2022-09-24T08:08:00.575Z,100.00
2022-09-24T08:10:28.699Z,100.00
2022-09-24T08:12:57.391Z,100.00
2022-09-24T08:15:24.217Z,100.00
2022-09-24T08:17:51.326Z,100.00
2022-09-24T08:20:18.378Z,100.00
2022-09-24T08:22:45.337Z,100.00
2022-09-24T08:25:12.090Z,100.00
2022-09-24T08:27:38.945Z,100.00
2022-09-24T08:30:06.781Z,100.00
2022-09-24T08:32:33.693Z,100.00
2022-09-24T08:35:00.345Z,100.00
2022-09-24T08:37:30.227Z,100.00
2022-09-24T08:39:56.959Z,100.00
2022-09-24T08:42:41.850Z,100.00
2022-09-24T08:45:30.092Z,100.00
2022-09-24T08:48:04.884Z,100.00
2022-09-24T08:50:35.126Z,100.00
2022-09-24T08:53:15.971Z,100.00
2022-09-24T08:55:52.806Z,100.00
2022-09-24T08:59:01.575Z,100.00
2022-09-24T09:01:56.832Z,100.00
2022-09-24T09:04:32.463Z,100.00
2022-09-24T09:07:18.044Z,100.00
2022-09-24T09:10:01.300Z,100.00
2022-09-24T09:12:35.840Z,100.00
2022-09-24T09:15:12.613Z,100.00
2022-09-24T09:17:54.916Z,100.00
2022-09-24T09:20:35.350Z,100.00
2022-09-24T09:24:00.835Z,100.00
2022-09-24T09:26:27.538Z,100.00
2022-09-24T09:29:00.150Z,100.00
2022-09-24T09:31:38.827Z,100.00
2022-09-24T09:34:37.835Z,100.00
2022-09-24T09:37:16.322Z,100.00
2022-09-24T09:39:53.360Z,100.00
2022-09-24T09:42:27.615Z,100.00
2022-09-24T09:44:54.851Z,100.00
2022-09-24T09:48:12.903Z,100.00
2022-09-24T09:50:49.616Z,100.00
2022-09-24T09:53:21.829Z,100.00
2022-09-24T09:55:56.659Z,100.00
2022-09-24T09:58:28.980Z,100.00
2022-09-24T10:01:13.210Z,100.00
2022-09-24T10:03:52.135Z,100.00
2022-09-24T10:06:27.313Z,100.00
2022-09-24T10:08:54.902Z,100.00
2022-09-24T10:14:11.549Z,100.00
2022-09-24T10:17:07.427Z,100.00
2022-09-24T10:19:39.163Z,100.00
2022-09-24T10:22:21.655Z,100.00
2022-09-24T10:24:49.716Z,100.00
2022-09-24T10:27:42.775Z,100.00
2022-09-24T10:30:34.222Z,100.00
2022-09-24T10:33:03.714Z,100.00
2022-09-24T10:35:36.253Z,100.00
2022-09-24T10:38:16.206Z,100.00
2022-09-24T10:40:43.053Z,100.00
2022-09-24T10:43:22.261Z,100.00
2022-09-24T10:45:58.080Z,100.00
2022-09-24T10:48:32.883Z,100.00
2022-09-24T10:51:28.768Z,100.00
2022-09-24T10:54:29.681Z,100.00
2022-09-24T10:56:59.546Z,100.00
2022-09-24T10:59:39.640Z,100.00
2022-09-24T11:02:29.156Z,100.00
2022-09-24T11:05:09.131Z,100.00
2022-09-24T11:08:00.438Z,100.00
2022-09-24T11:11:03.631Z,100.00
2022-09-24T11:13:47.919Z,100.00
2022-09-24T11:16:17.226Z,100.00
2022-09-24T11:19:00.271Z,100.00
2022-09-24T11:22:01.151Z,100.00
2022-09-24T11:24:33.827Z,100.00
2022-09-24T11:27:25.895Z,100.00
2022-09-24T11:30:21.816Z,100.00
2022-09-24T11:33:18.327Z,100.00
2022-09-24T11:36:25.411Z,100.00
2022-09-24T11:39:13.855Z,100.00
2022-09-24T11:41:52.634Z,100.00
2022-09-24T11:44:45.628Z,100.00
2022-09-24T11:47:12.188Z,100.00
2022-09-24T11:50:00.420Z,100.00
2022-09-24T11:52:41.536Z,100.00
2022-09-24T11:55:17.200Z,100.00
2022-09-24T11:57:54.604Z,100.00
2022-09-24T12:00:22.156Z,100.00
2022-09-24T12:02:55.809Z,100.00
2022-09-24T12:05:40.344Z,100.00
2022-09-24T12:08:27.830Z,100.00
2022-09-24T12:11:04.315Z,100.00
2022-09-24T12:13:57.100Z,100.00
2022-09-24T12:16:29.375Z,100.00
2022-09-24T12:19:02.942Z,100.00
2022-09-24T12:21:45.520Z,100.00
2022-09-24T12:24:19.435Z,100.00
2022-09-24T12:26:47.744Z,100.00
2022-09-24T12:29:59.356Z,100.00
2022-09-24T12:32:57.252Z,100.00
2022-09-24T12:35:55.210Z,100.00
2022-09-24T12:38:37.816Z,96.93
2022-09-24T12:41:28.517Z,94.65
2022-09-24T12:44:10.430Z,97.26
2022-09-24T12:46:45.751Z,89.36
2022-09-24T12:49:26.589Z,82.95
2022-09-24T12:51:55.659Z,78.08
2022-09-24T12:54:34.563Z,76.00
2022-09-24T12:57:15.450Z,77.59
2022-09-24T13:00:02.225Z,77.38
2022-09-24T13:02:47.112Z,76.27
2022-09-24T13:05:23.190Z,72.86
2022-09-24T13:07:57.816Z,73.29
2022-09-24T13:10:28.326Z,71.57
2022-09-24T13:12:56.774Z,69.56
2022-09-24T13:15:35.284Z,69.66
2022-09-24T13:18:04.480Z,68.84
2022-09-24T13:20:32.776Z,70.48
2022-09-24T13:23:35.441Z,70.45
2022-09-24T13:26:05.056Z,69.49
2022-09-24T13:28:58.372Z,71.15
2022-09-24T13:31:28.205Z,72.76
2022-09-24T13:34:18.162Z,75.80
2022-09-24T13:37:11.615Z,78.34
2022-09-24T13:39:46.391Z,79.14
2022-09-24T13:42:45.489Z,76.07
2022-09-24T13:45:18.732Z,73.30
2022-09-24T13:47:48.419Z,64.55
2022-09-24T13:50:36.040Z,64.52
2022-09-24T13:53:12.634Z,64.86
2022-09-24T13:55:47.490Z,64.91
2022-09-24T13:58:29.656Z,64.28
2022-09-24T14:00:59.915Z,64.66
2022-09-24T14:03:29.918Z,65.94
2022-09-24T14:05:59.968Z,65.96
2022-09-24T14:08:30.010Z,67.26
2022-09-24T14:11:12.955Z,61.89
2022-09-24T14:13:45.845Z,64.10
2022-09-24T14:16:17.966Z,67.62
2022-09-24T14:18:45.799Z,69.39
2022-09-24T14:21:32.967Z,70.68
2022-09-24T14:24:20.441Z,71.21
2022-09-24T14:27:04.696Z,73.01
2022-09-24T14:29:47.866Z,72.18
2022-09-24T14:32:24.971Z,73.48
2022-09-24T14:34:54.899Z,75.46
2022-09-24T14:37:46.492Z,74.87
2022-09-24T14:40:16.762Z,79.05
2022-09-24T14:42:55.434Z,79.02
2022-09-24T14:45:27.018Z,81.91
2022-09-24T14:48:28.757Z,85.57
2022-09-24T14:50:55.592Z,80.94
2022-09-24T14:53:29.828Z,80.03
2022-09-24T14:55:57.622Z,81.17
2022-09-24T14:58:31.258Z,85.37
2022-09-24T15:01:20.233Z,92.03
2022-09-24T15:03:50.217Z,100.00
2022-09-24T15:06:26.418Z,100.00
2022-09-24T15:09:04.178Z,99.12
2022-09-24T15:11:36.584Z,97.33
2022-09-24T15:14:27.861Z,98.43
2022-09-24T15:16:55.510Z,100.00
2022-09-24T15:19:25.487Z,100.00
2022-09-24T15:21:56.860Z,100.00
2022-09-24T15:24:24.610Z,100.00
2022-09-24T15:27:03.528Z,100.00
2022-09-24T15:29:30.652Z,100.00
2022-09-24T15:31:58.319Z,100.00
2022-09-24T15:34:25.834Z,100.00
2022-09-24T15:36:55.515Z,100.00
2022-09-24T15:39:25.534Z,100.00
2022-09-24T15:41:52.315Z,100.00
2022-09-24T15:44:28.327Z,97.74
2022-09-24T15:46:58.215Z,97.33
2022-09-24T15:49:25.663Z,99.59
2022-09-24T15:51:56.011Z,100.00
2022-09-24T15:54:24.886Z,100.00
2022-09-24T15:56:52.722Z,100.00
2022-09-24T15:59:21.598Z,100.00
2022-09-24T16:01:51.299Z,100.00
2022-09-24T16:04:18.449Z,98.61
2022-09-24T16:06:45.252Z,95.34
2022-09-24T16:09:12.164Z,95.94
2022-09-24T16:11:39.151Z,94.85
2022-09-24T16:14:05.856Z,94.09
2022-09-24T16:16:32.575Z,91.77
2022-09-24T16:18:59.350Z,90.25
2022-09-24T16:21:26.002Z,89.66
2022-09-24T16:23:56.771Z,92.18
2022-09-24T16:26:24.526Z,92.47
2022-09-24T16:28:51.738Z,91.97
2022-09-24T16:31:19.998Z,91.34
2022-09-24T16:33:47.072Z,89.96
2022-09-24T16:36:14.039Z,94.07
2022-09-24T16:38:40.766Z,92.54
2022-09-24T16:41:08.286Z,92.70
2022-09-24T16:43:34.949Z,90.76
2022-09-24T16:46:04.037Z,92.69
2022-09-24T16:48:31.962Z,93.60
2022-09-24T16:51:06.339Z,93.42
2022-09-24T16:53:34.944Z,93.48
2022-09-24T16:56:10.115Z,97.10
2022-09-24T16:58:36.867Z,100.00
2022-09-24T17:01:05.785Z,100.00
2022-09-24T17:03:32.847Z,100.00
2022-09-24T17:05:59.763Z,100.00
2022-09-24T17:08:46.794Z,100.00
2022-09-24T17:11:13.997Z,100.00
2022-09-24T17:13:40.833Z,100.00
2022-09-24T17:16:07.710Z,100.00
2022-09-24T17:18:34.832Z,100.00
2022-09-24T17:21:07.666Z,100.00
2022-09-24T17:23:34.546Z,100.00
2022-09-24T17:26:13.447Z,100.00
2022-09-24T17:28:42.259Z,100.00
2022-09-24T17:31:11.267Z,100.00
2022-09-24T17:33:43.323Z,100.00
2022-09-24T17:36:12.679Z,100.00
2022-09-24T17:38:39.671Z,100.00
2022-09-24T17:41:09.983Z,100.00
2022-09-24T17:43:37.375Z,100.00
2022-09-24T17:46:13.610Z,100.00
2022-09-24T17:48:44.757Z,100.00
2022-09-24T17:51:16.266Z,100.00
2022-09-24T17:53:43.617Z,100.00
2022-09-24T17:56:12.461Z,100.00
2022-09-24T17:58:41.399Z,100.00
2022-09-24T18:01:22.886Z,100.00
2022-09-24T18:03:57.121Z,100.00
2022-09-24T18:06:28.117Z,100.00
2022-09-24T18:08:57.353Z,100.00
2022-09-24T18:11:26.564Z,100.00
2022-09-24T18:13:55.671Z,100.00
2022-09-24T18:16:25.183Z,100.00
2022-09-24T18:18:52.417Z,100.00
2022-09-24T18:21:22.231Z,100.00
2022-09-24T18:23:51.743Z,100.00
2022-09-24T18:26:32.618Z,100.00
2022-09-24T18:29:02.270Z,100.00
2022-09-24T18:31:30.095Z,100.00
2022-09-24T18:34:05.891Z,100.00
2022-09-24T18:36:35.159Z,100.00
2022-09-24T18:39:02.716Z,100.00
2022-09-24T18:41:30.993Z,100.00
2022-09-24T18:44:01.588Z,100.00
2022-09-24T18:46:30.612Z,100.00
2022-09-24T18:48:58.948Z,100.00
2022-09-24T18:51:32.147Z,100.00
2022-09-24T18:54:00.188Z,100.00
2022-09-24T18:56:27.782Z,100.00
2022-09-24T18:58:59.175Z,100.00
2022-09-24T19:01:27.159Z,100.00
2022-09-24T19:04:00.550Z,100.00
2022-09-24T19:06:27.964Z,100.00
2022-09-24T19:08:54.908Z,100.00
2022-09-24T19:11:22.907Z,100.00
2022-09-24T19:13:53.928Z,100.00
2022-09-24T19:16:25.483Z,100.00
2022-09-24T19:18:53.708Z,100.00
2022-09-24T19:21:23.207Z,100.00
2022-09-24T19:23:52.699Z,100.00
2022-09-24T19:26:22.551Z,100.00
2022-09-24T19:28:52.999Z,100.00
2022-09-24T19:31:22.210Z,100.00
2022-09-24T19:33:50.304Z,100.00
2022-09-24T19:36:17.479Z,100.00
2022-09-24T19:38:44.986Z,100.00
2022-09-24T19:41:13.503Z,100.00
2022-09-24T19:43:43.496Z,100.00
2022-09-24T19:46:13.047Z,100.00
2022-09-24T19:48:41.494Z,100.00
2022-09-24T19:51:11.983Z,100.00
2022-09-24T19:53:39.172Z,100.00
2022-09-24T19:56:07.974Z,100.00
2022-09-24T19:58:35.194Z,100.00
2022-09-24T20:01:03.567Z,100.00
2022-09-24T20:03:32.068Z,100.00
2022-09-24T20:05:59.089Z,100.00
2022-09-24T20:08:25.837Z,100.00
2022-09-24T20:10:52.745Z,100.00
2022-09-24T20:13:21.265Z,100.00
2022-09-24T20:15:57.640Z,100.00
2022-09-24T20:18:24.597Z,100.00
2022-09-24T20:20:53.721Z,100.00
2022-09-24T20:23:21.510Z,100.00
2022-09-24T20:26:11.264Z,100.00
2022-09-24T20:28:38.801Z,100.00
2022-09-24T20:31:13.465Z,100.00
2022-09-24T20:33:42.549Z,100.00
2022-09-24T20:36:16.497Z,100.00
2022-09-24T20:38:47.411Z,100.00
2022-09-24T20:41:16.644Z,100.00
2022-09-24T20:43:44.451Z,100.00
2022-09-24T20:46:22.045Z,100.00
2022-09-24T20:48:48.988Z,100.00
2022-09-24T20:51:18.342Z,100.00
2022-09-24T20:53:46.447Z,100.00
2022-09-24T20:56:14.134Z,100.00
2022-09-24T20:58:41.567Z,100.00
2022-09-24T21:01:10.170Z,100.00
2022-09-24T21:03:44.318Z,100.00
2022-09-24T21:06:12.603Z,100.00
2022-09-24T21:08:44.308Z,100.00
2022-09-24T21:11:22.286Z,100.00
2022-09-24T21:13:51.690Z,100.00
2022-09-24T21:16:24.077Z,100.00
2022-09-24T21:18:54.473Z,100.00
2022-09-24T21:21:26.455Z,100.00
2022-09-24T21:23:54.810Z,100.00
2022-09-24T21:26:32.313Z,100.00
2022-09-24T21:29:11.546Z,100.00
2022-09-24T21:31:39.923Z,100.00
2022-09-24T21:34:07.457Z,100.00
2022-09-24T21:36:42.884Z,100.00
2022-09-24T21:39:28.622Z,100.00
2022-09-24T21:41:59.346Z,100.00
2022-09-24T21:44:26.368Z,100.00
2022-09-24T21:46:53.726Z,100.00
2022-09-24T21:49:20.838Z,100.00
2022-09-24T21:51:47.637Z,100.00
2022-09-24T21:54:17.224Z,100.00
2022-09-24T21:56:45.300Z,100.00
2022-09-24T21:59:31.137Z,100.00
2022-09-24T22:01:57.858Z,100.00
2022-09-24T22:04:24.529Z,100.00
2022-09-24T22:06:51.416Z,100.00
2022-09-24T22:09:18.814Z,100.00
2022-09-24T22:11:45.708Z,100.00
2022-09-24T22:14:13.248Z,100.00
2022-09-24T22:16:40.817Z,100.00
2022-09-24T22:19:09.403Z,100.00
2022-09-24T22:21:36.827Z,100.00
2022-09-24T22:24:04.502Z,100.00
2022-09-24T22:26:31.343Z,100.00
2022-09-24T22:28:58.787Z,100.00
2022-09-24T22:31:26.085Z,100.00
2022-09-24T22:34:11.941Z,100.00
2022-09-24T22:36:38.815Z,100.00
2022-09-24T22:39:06.472Z,100.00
2022-09-24T22:41:40.145Z,100.00
2022-09-24T22:44:07.508Z,100.00
2022-09-24T22:46:36.460Z,100.00
2022-09-24T22:49:04.189Z,100.00
2022-09-24T22:51:31.129Z,100.00
2022-09-24T22:54:00.313Z,100.00
2022-09-24T22:56:27.811Z,100.00
2022-09-24T22:58:56.991Z,100.00
2022-09-24T23:01:44.535Z,100.00
2022-09-24T23:04:15.325Z,100.00
2022-09-24T23:06:43.742Z,100.00
2022-09-24T23:09:11.355Z,100.00
2022-09-24T23:11:38.209Z,100.00
2022-09-24T23:14:07.960Z,100.00
2022-09-24T23:16:37.317Z,100.00
2022-09-24T23:19:08.133Z,100.00
2022-09-24T23:21:35.322Z,100.00
2022-09-24T23:24:04.860Z,100.00
2022-09-24T23:26:32.190Z,100.00
2022-09-24T23:29:00.750Z,100.00
2022-09-24T23:31:30.950Z,100.00
2022-09-24T23:33:59.071Z,100.00
2022-09-24T23:36:27.759Z,100.00
2022-09-24T23:38:54.551Z,100.00
2022-09-24T23:41:21.830Z,100.00
2022-09-24T23:43:49.015Z,100.00
2022-09-24T23:46:16.381Z,100.00
2022-09-24T23:48:43.366Z,100.00
2022-09-24T23:51:10.595Z,100.00
2022-09-24T23:53:38.076Z,100.00
2022-09-24T23:56:06.301Z,100.00
2022-09-24T23:58:33.197Z,100.00
